Enter the Airport ICAO Code

Search by Airport or City

Current Weather

SKCL | Alfonso Bonilla Aragón International Airport

Cali, Colombia

Last Update 29 Minutes Ago

Mostly Cloudy Sky

Temperature of 20 ºC

Light Winds from Variable Directions

Temperature

20 ºC

Dew Point Temperature

19 ºC

Relative Humidity

94.01 %

Wind Direction

Variable

Wind Velocity

4 km/h (02 kt)

Gusts

None

Visibility

Greater than 10 Kilometers

Sea Level Pressure

30.05 inHg (Inches of Mercury)

Layers of Clouds

60% to 90% of Sky Covered from 1219 mts (4000 ft) Above Ground Level.

30% to 60% of Sky Covered from 3048 mts (10000 ft) Above Ground Level.

METAR SKCL 131200Z VRB02KT 9999 BKN040 SCT100 20/19 A3005 NOSIG

Weather Forecast

SKCL | Alfonso Bonilla Aragón International Airport

Cali, Colombia

Forecast valid for the next 24 Hours

From now on it is expected:

Partly Cloudy Sky

Light Winds from Variable Directions

In 4 to 6 hours it is expected the begining of:

Moderate Winds from NorthWest

In 9 hours it is expected the begining of 2 hours with intermittent periods of:

Thunderstorm with Rain

In 13 to 15 hours it is expected the begining of:

Light Winds from North

Maximum Temperature

No Data

Minimum Temperature

No Data

TAF SKCL 131030Z 1312/1412 VRB02KT 9999 FEW025 SCT120 BECMG 1316/1318 33010KT TEMPO 1321/1323 6000 TSRA SCT020CB BKN090 BECMG 1401/1403 02004KT TX30/1319Z TN19/1410Z